createdAt,value
2023-05-18T00:00:03.696Z,11.19
2023-05-18T00:01:03.638Z,11.16
2023-05-18T00:02:03.493Z,11.22
2023-05-18T00:03:03.753Z,11.18
2023-05-18T00:04:03.443Z,11.13
2023-05-18T00:05:03.347Z,11.10
2023-05-18T00:06:03.479Z,11.02
2023-05-18T00:07:03.478Z,11.02
2023-05-18T00:08:03.231Z,11.16
2023-05-18T00:09:03.286Z,11.04
2023-05-18T00:10:03.183Z,11.02
2023-05-18T00:11:03.300Z,11.04
2023-05-18T00:12:03.166Z,11.05
2023-05-18T00:13:03.112Z,11.12
2023-05-18T00:14:02.936Z,11.13
2023-05-18T00:15:03.067Z,11.16
2023-05-18T00:16:02.911Z,11.15
2023-05-18T00:17:03.050Z,11.07
2023-05-18T00:18:03.115Z,11.15
2023-05-18T00:19:02.822Z,11.12
2023-05-18T00:20:02.855Z,11.15
2023-05-18T00:21:02.630Z,11.18
2023-05-18T00:22:02.870Z,11.15
2023-05-18T00:23:02.574Z,11.05
2023-05-18T00:24:02.490Z,11.15
2023-05-18T00:25:02.437Z,11.10
2023-05-18T00:26:02.728Z,11.12
2023-05-18T00:27:02.352Z,11.10
2023-05-18T00:28:02.511Z,11.13
2023-05-18T00:29:02.256Z,11.10
2023-05-18T00:30:02.223Z,11.08
2023-05-18T00:31:02.173Z,10.92
2023-05-18T00:32:02.624Z,10.95
2023-05-18T00:33:02.245Z,11.01
2023-05-18T00:34:02.145Z,11.00
2023-05-18T00:35:01.995Z,11.04
2023-05-18T00:36:01.943Z,11.08
2023-05-18T00:37:01.919Z,11.05
2023-05-18T00:38:01.973Z,11.08
2023-05-18T00:39:01.827Z,11.08
2023-05-18T00:40:02.001Z,11.10
2023-05-18T00:41:02.042Z,11.08
2023-05-18T00:42:01.672Z,11.10
2023-05-18T00:43:01.624Z,11.04
2023-05-18T00:44:01.803Z,10.98
2023-05-18T00:45:01.541Z,11.10
2023-05-18T00:46:01.636Z,11.07
2023-05-18T00:47:01.475Z,10.92
2023-05-18T00:48:01.683Z,11.00
2023-05-18T00:49:01.366Z,11.02
2023-05-18T00:50:01.441Z,11.00
2023-05-18T00:51:01.273Z,10.89
2023-05-18T00:52:01.459Z,10.90
2023-05-18T00:53:01.196Z,10.90
2023-05-18T00:54:01.271Z,10.95
2023-05-18T00:55:01.096Z,10.89
2023-05-18T00:56:01.285Z,10.95
2023-05-18T00:57:00.995Z,10.82
2023-05-18T00:58:01.110Z,10.92
2023-05-18T00:59:01.147Z,10.97
2023-05-18T01:00:01.130Z,10.92
2023-05-18T01:01:01.178Z,10.95
2023-05-18T01:02:00.809Z,10.80
2023-05-18T01:03:01.141Z,10.84
2023-05-18T01:04:00.704Z,10.77
2023-05-18T01:05:00.759Z,10.64
2023-05-18T01:06:00.588Z,10.71
2023-05-18T01:07:00.545Z,10.61
2023-05-18T01:08:00.756Z,10.62
2023-05-18T01:09:00.452Z,10.62
2023-05-18T01:10:00.784Z,10.61
2023-05-18T01:11:00.404Z,10.67
2023-05-18T01:12:00.589Z,10.67
2023-05-18T01:13:00.382Z,10.62
2023-05-18T01:14:00.219Z,10.62
2023-05-18T01:15:00.398Z,10.57
2023-05-18T01:16:00.134Z,10.53
2023-05-18T01:17:00.259Z,10.58
2023-05-18T01:18:00.092Z,10.57
2023-05-18T01:19:00.020Z,10.58
2023-05-18T01:19:59.948Z,10.49
2023-05-18T01:20:59.935Z,10.49
2023-05-18T01:22:00.047Z,10.51
2023-05-18T01:22:59.829Z,10.43
2023-05-18T01:24:00.058Z,10.49
2023-05-18T01:24:59.717Z,10.39
2023-05-18T01:25:59.679Z,10.30
2023-05-18T01:27:00.088Z,10.27
2023-05-18T01:27:59.582Z,10.31
2023-05-18T01:28:59.686Z,10.34
2023-05-18T01:29:59.497Z,10.41
2023-05-18T01:30:59.771Z,10.45
2023-05-18T01:31:59.424Z,10.31
2023-05-18T01:32:59.543Z,10.20
2023-05-18T01:33:59.312Z,10.15
2023-05-18T01:34:59.527Z,10.15
2023-05-18T01:35:59.218Z,10.10
2023-05-18T01:36:59.343Z,10.13
2023-05-18T01:37:59.546Z,10.05
2023-05-18T01:38:59.084Z,10.05
2023-05-18T01:39:59.370Z,10.12
2023-05-18T01:40:59.046Z,10.17
2023-05-18T01:41:59.222Z,10.17
2023-05-18T01:42:58.934Z,10.20
2023-05-18T01:43:59.026Z,10.15
2023-05-18T01:44:58.805Z,10.12
2023-05-18T01:45:59.029Z,10.00
2023-05-18T01:46:58.720Z,10.02
2023-05-18T01:47:58.871Z,10.00
2023-05-18T01:48:58.633Z,9.95
2023-05-18T01:49:58.829Z,10.03
2023-05-18T01:50:58.537Z,10.02
2023-05-18T01:51:58.622Z,10.02
2023-05-18T01:52:58.494Z,10.05
2023-05-18T01:53:58.634Z,10.06
2023-05-18T01:54:58.405Z,10.03
2023-05-18T01:55:58.448Z,10.02
2023-05-18T01:56:58.260Z,10.07
2023-05-18T01:57:58.467Z,10.12
2023-05-18T01:58:58.187Z,10.05
2023-05-18T01:59:58.270Z,10.00
2023-05-18T02:00:58.336Z,9.99
2023-05-18T02:01:59.325Z,10.05
2023-05-18T02:02:58.097Z,10.02
2023-05-18T02:03:58.162Z,10.00
2023-05-18T02:04:57.900Z,10.02
2023-05-18T02:05:58.112Z,10.03
2023-05-18T02:06:57.822Z,9.90
2023-05-18T02:07:57.923Z,9.99
2023-05-18T02:08:57.925Z,9.92
2023-05-18T02:09:57.721Z,9.95
2023-05-18T02:10:57.960Z,9.95
2023-05-18T02:11:57.580Z,9.81
2023-05-18T02:12:57.754Z,9.85
2023-05-18T02:13:57.489Z,9.87
2023-05-18T02:14:57.625Z,9.90
2023-05-18T02:15:57.400Z,9.81
2023-05-18T02:16:57.592Z,9.90
2023-05-18T02:17:57.318Z,9.66
2023-05-18T02:18:57.436Z,9.72
2023-05-18T02:19:57.200Z,9.80
2023-05-18T02:20:57.236Z,9.88
2023-05-18T02:21:57.301Z,9.85
2023-05-18T02:22:57.264Z,9.88
2023-05-18T02:23:57.115Z,9.81
2023-05-18T02:24:56.971Z,9.85
2023-05-18T02:25:56.989Z,9.88
2023-05-18T02:26:57.035Z,9.85
2023-05-18T02:27:56.843Z,9.84
2023-05-18T02:28:56.815Z,9.81
2023-05-18T02:29:57.060Z,9.90
2023-05-18T02:30:56.708Z,9.87
2023-05-18T02:31:56.714Z,9.84
2023-05-18T02:32:56.710Z,9.73
2023-05-18T02:33:56.562Z,9.74
2023-05-18T02:34:56.503Z,9.72
2023-05-18T02:35:56.702Z,9.63
2023-05-18T02:36:56.537Z,9.67
2023-05-18T02:37:56.498Z,9.73
2023-05-18T02:38:56.334Z,9.66
2023-05-18T02:39:56.283Z,9.70
2023-05-18T02:40:56.235Z,9.76
2023-05-18T02:41:56.343Z,9.69
2023-05-18T02:42:56.188Z,9.69
2023-05-18T02:43:56.140Z,9.74
2023-05-18T02:44:56.049Z,9.69
2023-05-18T02:45:56.076Z,9.70
2023-05-18T02:46:55.963Z,9.70
2023-05-18T02:47:56.004Z,9.69
2023-05-18T02:48:55.922Z,9.72
2023-05-18T02:49:55.976Z,9.73
2023-05-18T02:50:55.791Z,9.66
2023-05-18T02:51:55.785Z,9.66
2023-05-18T02:52:55.706Z,9.67
2023-05-18T02:53:55.812Z,9.76
2023-05-18T02:54:55.857Z,9.70
2023-05-18T02:55:55.631Z,9.70
2023-05-18T02:56:55.510Z,9.77
2023-05-18T02:57:55.635Z,9.66
2023-05-18T02:58:55.418Z,9.74
2023-05-18T02:59:55.435Z,9.87
2023-05-18T03:00:55.416Z,9.84
2023-05-18T03:01:55.452Z,9.74
2023-05-18T03:02:55.364Z,9.81
2023-05-18T03:03:55.258Z,9.81
2023-05-18T03:04:56.299Z,9.84
2023-05-18T03:05:55.351Z,9.84
2023-05-18T03:06:55.287Z,9.90
2023-05-18T03:07:55.004Z,9.87
2023-05-18T03:08:55.091Z,9.88
2023-05-18T03:09:54.915Z,9.84
2023-05-18T03:10:54.886Z,9.88
2023-05-18T03:11:54.923Z,9.88
2023-05-18T03:12:54.774Z,9.88
2023-05-18T03:13:54.939Z,9.85
2023-05-18T03:14:54.684Z,9.87
2023-05-18T03:15:54.735Z,9.84
2023-05-18T03:16:54.960Z,9.91
2023-05-18T03:17:54.560Z,9.82
2023-05-18T03:18:54.572Z,9.84
2023-05-18T03:19:54.458Z,9.67
2023-05-18T03:20:54.569Z,9.77
2023-05-18T03:21:54.386Z,9.74
2023-05-18T03:22:54.333Z,9.85
2023-05-18T03:23:54.432Z,9.88
2023-05-18T03:24:54.401Z,9.77
2023-05-18T03:25:54.186Z,9.82
2023-05-18T03:26:54.208Z,9.77
2023-05-18T03:27:54.096Z,9.85
2023-05-18T03:28:54.218Z,9.87
2023-05-18T03:29:54.049Z,9.80
2023-05-18T03:30:54.038Z,9.73
2023-05-18T03:31:53.968Z,9.70
2023-05-18T03:32:54.086Z,9.69
2023-05-18T03:33:53.822Z,9.69
2023-05-18T03:34:53.856Z,9.64
2023-05-18T03:35:53.914Z,9.64
2023-05-18T03:36:53.865Z,9.63
2023-05-18T03:37:53.628Z,9.64
2023-05-18T03:38:53.676Z,9.55
2023-05-18T03:39:53.538Z,9.54
2023-05-18T03:40:53.695Z,9.54
2023-05-18T03:41:53.698Z,9.58
2023-05-18T03:42:53.398Z,9.55
2023-05-18T03:43:53.525Z,9.55
2023-05-18T03:44:53.312Z,9.55
2023-05-18T03:45:53.345Z,9.56
2023-05-18T03:46:53.373Z,9.51
2023-05-18T03:47:53.446Z,9.52
2023-05-18T03:48:53.200Z,9.59
2023-05-18T03:49:53.151Z,9.59
2023-05-18T03:50:53.037Z,9.54
2023-05-18T03:51:53.164Z,9.55
2023-05-18T03:52:52.978Z,9.59
2023-05-18T03:53:52.901Z,9.59
2023-05-18T03:54:52.881Z,9.64
2023-05-18T03:55:52.980Z,9.69
2023-05-18T03:56:52.773Z,9.67
2023-05-18T03:57:52.798Z,9.70
2023-05-18T03:58:52.673Z,9.70
2023-05-18T03:59:52.808Z,9.74
2023-05-18T04:00:52.700Z,9.70
2023-05-18T04:01:52.662Z,9.67
2023-05-18T04:02:52.749Z,9.67
2023-05-18T04:03:53.891Z,9.73
2023-05-18T04:04:52.392Z,9.77
2023-05-18T04:05:52.449Z,9.87
2023-05-18T04:06:52.325Z,9.88
2023-05-18T04:07:52.463Z,9.85
2023-05-18T04:08:52.408Z,9.91
2023-05-18T04:09:52.476Z,9.92
2023-05-18T04:10:52.229Z,9.99
2023-05-18T04:11:52.435Z,10.06
2023-05-18T04:12:52.018Z,10.02
2023-05-18T04:13:53.240Z,10.02
2023-05-18T04:14:52.018Z,10.05
2023-05-18T04:15:52.121Z,10.20
2023-05-18T04:16:52.111Z,10.18
2023-05-18T04:17:51.988Z,10.30
2023-05-18T04:18:51.954Z,10.34
2023-05-18T04:19:51.818Z,10.39
2023-05-18T04:20:51.858Z,10.38
2023-05-18T04:21:51.864Z,10.49
2023-05-18T04:22:51.873Z,10.51
2023-05-18T04:23:51.741Z,10.62
2023-05-18T04:24:51.489Z,10.62
2023-05-18T04:25:51.521Z,10.69
2023-05-18T04:26:51.665Z,10.82
2023-05-18T04:27:51.770Z,10.84
2023-05-18T04:28:51.398Z,10.97
2023-05-18T04:29:51.562Z,10.97
2023-05-18T04:30:51.199Z,11.12
2023-05-18T04:31:51.243Z,11.08
2023-05-18T04:32:51.379Z,11.05
2023-05-18T04:33:51.131Z,11.15
2023-05-18T04:34:51.276Z,11.13
2023-05-18T04:35:51.249Z,11.15
2023-05-18T04:36:51.028Z,11.31
2023-05-18T04:37:50.979Z,11.26
2023-05-18T04:38:51.053Z,11.34
2023-05-18T04:39:51.203Z,11.34
2023-05-18T04:40:51.043Z,11.30
2023-05-18T04:41:50.901Z,11.37
2023-05-18T04:42:50.723Z,11.33
2023-05-18T04:43:50.713Z,11.33
2023-05-18T04:44:50.676Z,11.43
2023-05-18T04:45:50.950Z,11.45
2023-05-18T04:46:50.669Z,11.43
2023-05-18T04:47:50.575Z,11.37
2023-05-18T04:48:50.391Z,11.43
2023-05-18T04:49:50.721Z,11.53
2023-05-18T04:50:50.299Z,11.60
2023-05-18T04:51:50.442Z,11.58
2023-05-18T04:52:50.333Z,11.67
2023-05-18T04:53:50.172Z,11.65
2023-05-18T04:54:50.347Z,11.83
2023-05-18T04:55:50.076Z,11.77
2023-05-18T04:56:50.156Z,11.83
2023-05-18T04:57:50.457Z,11.93
2023-05-18T04:58:50.210Z,11.97
2023-05-18T04:59:50.052Z,12.07
2023-05-18T05:00:49.857Z,12.12
2023-05-18T05:01:50.046Z,12.14
2023-05-18T05:02:49.808Z,12.11
2023-05-18T05:03:49.893Z,12.11
2023-05-18T05:04:49.727Z,12.14
2023-05-18T05:05:49.627Z,12.10
2023-05-18T05:06:49.666Z,12.08
2023-05-18T05:07:49.728Z,12.23
2023-05-18T05:08:49.506Z,12.29
2023-05-18T05:09:49.849Z,12.37
2023-05-18T05:10:49.523Z,12.44
2023-05-18T05:11:49.353Z,12.48
2023-05-18T05:12:49.689Z,12.35
2023-05-18T05:13:49.477Z,12.32
2023-05-18T05:14:49.220Z,12.28
2023-05-18T05:15:49.297Z,12.29
2023-05-18T05:16:49.134Z,12.18
2023-05-18T05:17:49.156Z,12.28
2023-05-18T05:18:49.330Z,12.36
2023-05-18T05:19:48.993Z,12.39
2023-05-18T05:20:49.104Z,12.47
2023-05-18T05:21:49.162Z,12.55
2023-05-18T05:22:49.236Z,12.63
2023-05-18T05:23:48.813Z,12.66
2023-05-18T05:24:49.049Z,12.81
2023-05-18T05:25:48.837Z,12.81
2023-05-18T05:26:49.074Z,12.93
2023-05-18T05:27:48.735Z,12.94
2023-05-18T05:28:48.605Z,13.08
2023-05-18T05:29:48.547Z,13.05
2023-05-18T05:30:48.851Z,13.03
2023-05-18T05:31:48.699Z,13.03
2023-05-18T05:32:48.614Z,13.13
2023-05-18T05:33:48.466Z,13.24
2023-05-18T05:34:48.328Z,13.24
2023-05-18T05:35:48.362Z,13.26
2023-05-18T05:36:48.611Z,13.24
2023-05-18T05:37:48.330Z,13.31
2023-05-18T05:38:48.483Z,13.33
2023-05-18T05:39:48.110Z,13.27
2023-05-18T05:40:48.069Z,13.45
2023-05-18T05:41:48.029Z,13.46
2023-05-18T05:42:48.448Z,13.65
2023-05-18T05:43:48.170Z,13.78
2023-05-18T05:44:48.193Z,13.91
2023-05-18T05:45:47.932Z,13.85
2023-05-18T05:46:47.847Z,14.00
2023-05-18T05:47:48.017Z,14.18
2023-05-18T05:48:47.871Z,14.12
2023-05-18T05:49:48.016Z,13.98
2023-05-18T05:50:47.816Z,14.05
2023-05-18T05:51:47.713Z,14.11
2023-05-18T05:52:47.547Z,13.91
2023-05-18T05:53:47.891Z,14.04
2023-05-18T05:54:47.754Z,14.03
2023-05-18T05:55:47.710Z,14.04
2023-05-18T05:56:47.386Z,13.89
2023-05-18T05:57:47.650Z,13.91
2023-05-18T05:58:47.305Z,13.94
2023-05-18T05:59:47.506Z,13.89
2023-05-18T06:03:46.770Z,13.47
2023-05-18T06:04:46.720Z,13.31
2023-05-18T06:05:47.093Z,13.43
2023-05-18T06:06:46.579Z,13.37
2023-05-18T06:07:46.895Z,13.33
2023-05-18T06:08:46.755Z,13.30
2023-05-18T06:09:46.450Z,13.31
2023-05-18T06:10:46.444Z,13.31
2023-05-18T06:11:46.361Z,13.36
2023-05-18T06:12:46.755Z,13.54
2023-05-18T06:13:46.448Z,13.57
2023-05-18T06:14:46.431Z,13.67
2023-05-18T06:15:46.335Z,13.71
2023-05-18T06:16:46.393Z,13.67
2023-05-18T06:17:46.376Z,13.68
2023-05-18T06:18:46.335Z,13.62
2023-05-18T06:19:46.160Z,13.68
2023-05-18T06:20:46.065Z,13.78
2023-05-18T06:21:46.017Z,13.68
2023-05-18T06:22:46.001Z,13.68
2023-05-18T06:23:45.873Z,13.65
2023-05-18T06:24:46.195Z,13.68
2023-05-18T06:25:45.856Z,13.82
2023-05-18T06:26:45.964Z,13.73
2023-05-18T06:27:45.869Z,13.71
2023-05-18T06:28:45.717Z,13.68
2023-05-18T06:29:45.628Z,13.62
2023-05-18T06:30:45.777Z,13.67
2023-05-18T06:31:45.625Z,13.68
2023-05-18T06:32:45.780Z,13.71
2023-05-18T06:33:45.448Z,13.85
2023-05-18T06:34:45.684Z,13.93
2023-05-18T06:35:45.390Z,13.86
2023-05-18T06:36:45.470Z,13.98
2023-05-18T06:37:46.971Z,14.07
2023-05-18T06:38:45.196Z,14.11
2023-05-18T06:39:45.126Z,14.04
2023-05-18T06:40:45.312Z,13.86
2023-05-18T06:41:45.117Z,14.04
2023-05-18T06:42:45.612Z,14.04
2023-05-18T06:43:44.954Z,14.01
2023-05-18T06:44:45.017Z,13.98
2023-05-18T06:45:44.907Z,13.85
2023-05-18T06:46:45.028Z,13.85
2023-05-18T06:47:44.829Z,13.87
2023-05-18T06:48:44.850Z,14.05
2023-05-18T06:49:44.693Z,14.08
2023-05-18T06:50:45.031Z,14.08
2023-05-18T06:51:44.619Z,14.13
2023-05-18T06:52:44.665Z,14.12
2023-05-18T06:53:44.768Z,14.15
2023-05-18T06:54:45.092Z,14.01
2023-05-18T06:55:44.513Z,14.01
2023-05-18T06:56:44.380Z,14.04
2023-05-18T06:57:44.337Z,14.05
2023-05-18T06:58:44.623Z,14.04
2023-05-18T06:59:44.363Z,13.89
2023-05-18T07:00:44.522Z,13.89
2023-05-18T07:01:44.555Z,13.79
2023-05-18T07:02:44.178Z,13.82
2023-05-18T07:03:44.307Z,13.78
2023-05-18T07:04:44.264Z,13.75
2023-05-18T07:05:44.162Z,13.83
2023-05-18T07:06:44.371Z,13.89
2023-05-18T07:07:43.923Z,13.93
2023-05-18T07:08:43.866Z,13.83
2023-05-18T07:09:44.433Z,13.93
2023-05-18T07:10:43.862Z,13.94
2023-05-18T07:11:44.134Z,14.04
2023-05-18T07:12:43.755Z,14.03
2023-05-18T07:13:43.927Z,14.12
2023-05-18T07:14:43.666Z,14.05
2023-05-18T07:15:43.862Z,14.16
2023-05-18T07:16:43.705Z,14.03
2023-05-18T07:17:43.786Z,14.15
2023-05-18T07:18:43.461Z,14.05
2023-05-18T07:19:43.366Z,14.01
2023-05-18T07:20:43.551Z,14.04
2023-05-18T07:21:43.720Z,14.11
2023-05-18T07:22:43.286Z,14.11
2023-05-18T07:23:43.509Z,14.04
2023-05-18T07:24:43.197Z,14.03
2023-05-18T07:25:43.098Z,14.11
2023-05-18T07:26:43.076Z,14.19
2023-05-18T07:27:43.488Z,14.30
2023-05-18T07:28:43.333Z,14.28
2023-05-18T07:29:43.242Z,14.45
2023-05-18T07:30:42.886Z,14.55
2023-05-18T07:31:42.943Z,14.49
2023-05-18T07:32:42.836Z,14.63
2023-05-18T07:33:43.128Z,14.66
2023-05-18T07:34:42.842Z,14.66
2023-05-18T07:35:42.936Z,14.71
2023-05-18T07:36:42.739Z,14.78
2023-05-18T07:37:42.815Z,14.90
2023-05-18T07:38:42.549Z,15.05
2023-05-18T07:39:42.961Z,15.08
2023-05-18T07:40:42.456Z,15.07
2023-05-18T07:41:42.565Z,15.02
2023-05-18T07:42:42.368Z,14.97
2023-05-18T07:43:42.581Z,15.02
2023-05-18T07:44:42.282Z,15.02
2023-05-18T07:45:42.391Z,15.02
2023-05-18T07:46:42.277Z,15.05
2023-05-18T07:47:42.523Z,15.19
2023-05-18T07:48:42.225Z,15.15
2023-05-18T07:49:42.122Z,15.25
2023-05-18T07:50:42.458Z,15.37
2023-05-18T07:51:41.969Z,15.55
2023-05-18T07:52:42.035Z,15.60
2023-05-18T07:53:41.887Z,15.72
2023-05-18T07:54:41.840Z,15.84
2023-05-18T07:55:41.800Z,15.99
2023-05-18T07:56:41.796Z,16.12
2023-05-18T07:57:41.884Z,16.41
2023-05-18T07:58:41.666Z,16.73
2023-05-18T07:59:41.886Z,16.80
2023-05-18T08:00:41.690Z,17.28
2023-05-18T08:01:41.601Z,17.53
2023-05-18T08:02:42.399Z,17.90
2023-05-18T08:03:41.559Z,18.53
2023-05-18T08:04:41.732Z,18.74
2023-05-18T08:05:41.373Z,19.12
2023-05-18T08:06:41.323Z,19.52
2023-05-18T08:07:41.501Z,19.87
2023-05-18T08:08:41.276Z,20.27
2023-05-18T08:09:41.340Z,20.55
2023-05-18T08:10:41.191Z,20.77
2023-05-18T08:11:41.357Z,21.01
2023-05-18T08:12:41.080Z,21.05
2023-05-18T08:13:41.167Z,21.45
2023-05-18T08:14:41.069Z,21.72
2023-05-18T08:15:41.197Z,21.69
2023-05-18T08:16:40.970Z,21.48
2023-05-18T08:17:41.073Z,21.48
2023-05-18T08:18:40.964Z,21.59
2023-05-18T08:19:41.966Z,21.50
2023-05-18T08:20:40.780Z,21.60
2023-05-18T08:21:40.915Z,21.35
2023-05-18T08:22:40.699Z,21.44
2023-05-18T08:23:40.943Z,21.35
2023-05-18T08:24:40.603Z,21.00
2023-05-18T08:25:40.743Z,20.66
2023-05-18T08:26:40.537Z,20.64
2023-05-18T08:27:40.785Z,20.68
2023-05-18T08:28:40.486Z,20.74
2023-05-18T08:29:40.404Z,20.71
2023-05-18T08:30:40.367Z,20.60
2023-05-18T08:31:40.660Z,20.58
2023-05-18T08:32:40.343Z,20.71
2023-05-18T08:33:40.390Z,20.59
2023-05-18T08:34:40.451Z,20.32
2023-05-18T08:35:40.194Z,20.50
2023-05-18T08:36:40.460Z,20.73
2023-05-18T08:37:40.264Z,21.04
2023-05-18T08:38:40.051Z,21.23
2023-05-18T08:39:40.236Z,21.38
2023-05-18T08:40:40.023Z,21.47
2023-05-18T08:41:40.269Z,21.48
2023-05-18T08:42:49.222Z,21.44
2023-05-18T08:43:39.851Z,21.29
2023-05-18T08:44:40.063Z,21.35
2023-05-18T08:45:39.925Z,21.19
2023-05-18T08:46:39.870Z,21.32
2023-05-18T08:47:39.745Z,21.35
2023-05-18T08:48:39.960Z,21.15
2023-05-18T08:49:39.616Z,21.04
2023-05-18T08:50:39.899Z,20.86
2023-05-18T08:51:39.540Z,20.77
2023-05-18T08:52:40.795Z,20.64
2023-05-18T08:53:39.720Z,20.59
2023-05-18T08:54:39.423Z,20.73
2023-05-18T08:55:39.530Z,20.68
2023-05-18T08:56:39.595Z,20.60
2023-05-18T08:57:39.570Z,20.46
2023-05-18T08:58:39.277Z,20.46
2023-05-18T08:59:39.228Z,20.39
2023-05-18T09:00:39.187Z,20.36
2023-05-18T09:01:39.378Z,20.42
2023-05-18T09:02:39.277Z,20.64
2023-05-18T09:03:39.379Z,20.88
2023-05-18T09:04:39.066Z,20.89
2023-05-18T09:05:39.452Z,20.86
2023-05-18T09:06:38.946Z,20.85
2023-05-18T09:07:39.206Z,20.83
2023-05-18T09:08:38.880Z,20.93
2023-05-18T09:09:39.018Z,20.88
2023-05-18T09:10:38.787Z,20.67
2023-05-18T09:11:40.075Z,20.53
2023-05-18T09:12:38.703Z,20.40
2023-05-18T09:13:38.837Z,20.59
2023-05-18T09:14:38.629Z,20.71
2023-05-18T09:15:39.115Z,20.82
2023-05-18T09:16:38.875Z,20.89
2023-05-18T09:17:38.589Z,21.01
2023-05-18T09:18:39.605Z,21.05
2023-05-18T09:19:38.433Z,21.07
2023-05-18T09:20:38.690Z,21.17
2023-05-18T09:21:38.446Z,21.20
2023-05-18T09:22:38.313Z,21.32
2023-05-18T09:23:38.275Z,21.50
2023-05-18T09:24:38.517Z,21.70
2023-05-18T09:25:38.187Z,21.72
2023-05-18T09:26:38.322Z,21.78
2023-05-18T09:27:40.419Z,21.77
2023-05-18T09:28:39.369Z,21.72
2023-05-18T09:29:38.038Z,21.63
2023-05-18T09:30:38.146Z,21.72
2023-05-18T09:31:37.973Z,21.59
2023-05-18T09:32:38.241Z,21.74
2023-05-18T09:33:38.166Z,21.80
2023-05-18T09:34:37.910Z,21.81
2023-05-18T09:35:37.986Z,21.68
2023-05-18T09:36:37.858Z,21.53
2023-05-18T09:37:38.087Z,21.41
2023-05-18T09:38:37.694Z,21.66
2023-05-18T09:39:45.140Z,21.81
2023-05-18T09:40:37.654Z,21.84
2023-05-18T09:41:37.724Z,21.84
2023-05-18T09:42:37.536Z,21.81
2023-05-18T09:43:37.629Z,21.80
2023-05-18T09:44:37.470Z,21.69
2023-05-18T09:45:37.609Z,21.35
2023-05-18T09:46:37.468Z,21.37
2023-05-18T09:47:37.376Z,21.32
2023-05-18T09:48:37.482Z,21.43
2023-05-18T09:49:37.262Z,21.40
2023-05-18T09:50:37.270Z,21.47
2023-05-18T09:51:37.479Z,21.70
2023-05-18T09:52:37.163Z,22.03
2023-05-18T09:53:37.313Z,22.33
2023-05-18T09:54:37.071Z,22.67
2023-05-18T09:55:39.171Z,22.98
2023-05-18T09:56:37.364Z,23.18
2023-05-18T09:57:37.021Z,23.17
2023-05-18T09:58:37.122Z,23.34
2023-05-18T09:59:36.928Z,23.48
2023-05-18T10:00:38.409Z,23.95
2023-05-18T10:01:36.807Z,24.28
2023-05-18T10:02:37.048Z,24.66
2023-05-18T10:03:36.729Z,24.74
2023-05-18T10:04:36.805Z,24.71
2023-05-18T10:05:37.005Z,24.22
2023-05-18T10:06:36.673Z,24.03
2023-05-18T10:07:36.669Z,23.85
2023-05-18T10:08:36.742Z,23.85
2023-05-18T10:09:36.513Z,23.86
2023-05-18T10:10:36.701Z,23.59
2023-05-18T10:11:36.447Z,23.40
2023-05-18T10:12:36.520Z,23.54
2023-05-18T10:13:36.360Z,23.70
2023-05-18T10:14:36.411Z,23.86
2023-05-18T10:15:36.284Z,24.10
2023-05-18T10:16:36.365Z,24.21
2023-05-18T10:17:36.302Z,24.41
2023-05-18T10:18:36.433Z,24.59
2023-05-18T10:19:36.143Z,24.79
2023-05-18T10:20:37.235Z,24.89
2023-05-18T10:21:36.173Z,24.93
2023-05-18T10:22:36.035Z,24.96
2023-05-18T10:23:36.247Z,24.82
2023-05-18T10:24:35.960Z,24.71
2023-05-18T10:25:35.983Z,24.55
2023-05-18T10:26:35.892Z,24.34
2023-05-18T10:27:36.045Z,23.92
2023-05-18T10:28:35.813Z,23.59
2023-05-18T10:29:35.822Z,23.69
2023-05-18T10:30:35.788Z,23.44
2023-05-18T10:31:35.996Z,23.13
2023-05-18T10:32:35.741Z,22.99
2023-05-18T10:33:35.791Z,22.89
2023-05-18T10:34:35.641Z,22.73
2023-05-18T10:35:35.761Z,22.53
2023-05-18T10:36:35.517Z,22.21
2023-05-18T10:37:35.513Z,22.07
2023-05-18T10:38:35.467Z,22.01
2023-05-18T10:39:37.846Z,21.85
2023-05-18T10:40:35.371Z,21.81
2023-05-18T10:41:36.475Z,21.84
2023-05-18T10:42:35.290Z,21.96
2023-05-18T10:43:35.459Z,21.88
2023-05-18T10:44:35.416Z,22.14
2023-05-18T10:45:35.177Z,22.14
2023-05-18T10:46:35.288Z,21.80
2023-05-18T10:47:35.267Z,21.84
2023-05-18T10:48:36.314Z,21.89
2023-05-18T10:49:35.053Z,21.81
2023-05-18T10:50:35.067Z,21.84
2023-05-18T10:51:34.942Z,21.83
2023-05-18T10:52:35.065Z,21.72
2023-05-18T10:53:34.869Z,21.65
2023-05-18T10:54:35.133Z,21.58
2023-05-18T10:55:34.787Z,21.47
2023-05-18T10:56:36.941Z,21.40
2023-05-18T10:57:34.715Z,21.45
2023-05-18T10:58:34.903Z,21.32
2023-05-18T10:59:34.637Z,21.14
2023-05-18T11:00:34.691Z,21.19
2023-05-18T11:01:34.619Z,21.20
2023-05-18T11:02:34.781Z,21.32
2023-05-18T11:03:34.506Z,21.44
2023-05-18T11:04:34.574Z,21.84
2023-05-18T11:05:34.403Z,22.15
2023-05-18T11:06:34.614Z,22.30
2023-05-18T11:07:34.691Z,22.21
2023-05-18T11:08:34.278Z,22.19
2023-05-18T11:09:35.400Z,22.43
2023-05-18T11:10:34.217Z,22.43
2023-05-18T11:11:35.212Z,22.44
2023-05-18T11:12:34.199Z,22.40
2023-05-18T11:13:34.343Z,22.51
2023-05-18T11:14:34.050Z,22.58
2023-05-18T11:15:34.415Z,22.51
2023-05-18T11:16:33.992Z,22.44
2023-05-18T11:17:35.310Z,22.47
2023-05-18T11:18:33.896Z,22.51
2023-05-18T11:19:33.942Z,22.62
2023-05-18T11:20:33.848Z,22.41
2023-05-18T11:21:33.951Z,22.34
2023-05-18T11:22:33.743Z,22.46
2023-05-18T11:23:33.714Z,22.65
2023-05-18T11:24:33.680Z,23.07
2023-05-18T11:25:35.010Z,23.26
2023-05-18T11:26:33.600Z,23.58
2023-05-18T11:27:33.833Z,24.06
2023-05-18T11:28:33.548Z,24.41
2023-05-18T11:29:33.492Z,24.61
2023-05-18T11:30:34.988Z,24.82
2023-05-18T11:31:33.501Z,24.93
2023-05-18T11:32:33.489Z,25.01
2023-05-18T11:33:33.673Z,25.14
2023-05-18T11:34:33.292Z,25.11
2023-05-18T11:35:33.445Z,25.12
2023-05-18T11:36:33.218Z,24.85
2023-05-18T11:37:34.322Z,24.61
2023-05-18T11:38:33.161Z,24.51
2023-05-18T11:39:33.846Z,24.09
2023-05-18T11:40:33.149Z,23.96
2023-05-18T11:41:33.280Z,23.88
2023-05-18T11:42:33.005Z,23.59
2023-05-18T11:43:33.086Z,23.26
2023-05-18T11:44:32.931Z,22.98
2023-05-18T11:45:33.308Z,22.91
2023-05-18T11:46:32.843Z,22.74
2023-05-18T11:47:34.018Z,22.62
2023-05-18T11:48:32.866Z,22.76
2023-05-18T11:49:32.921Z,22.70
2023-05-18T11:50:32.969Z,22.58
2023-05-18T11:51:34.780Z,22.49
2023-05-18T11:52:32.620Z,22.31
2023-05-18T11:53:32.750Z,22.21
2023-05-18T11:54:32.537Z,22.22
2023-05-18T11:55:32.764Z,22.19
2023-05-18T11:56:32.463Z,22.12
2023-05-18T11:57:32.604Z,22.00
2023-05-18T11:58:32.395Z,21.84
2023-05-18T11:59:32.589Z,21.89
2023-05-18T12:00:32.625Z,21.72
2023-05-18T12:01:33.425Z,21.66
2023-05-18T12:02:32.373Z,21.47
2023-05-18T12:03:33.510Z,21.33
2023-05-18T12:04:32.171Z,21.30
2023-05-18T12:05:34.270Z,21.22
2023-05-18T12:06:32.089Z,21.10
2023-05-18T12:07:32.412Z,21.03
2023-05-18T12:08:32.090Z,20.90
2023-05-18T12:09:32.048Z,20.74
2023-05-18T12:10:32.598Z,20.56
2023-05-18T12:11:31.910Z,20.53
2023-05-18T12:12:32.075Z,20.52
2023-05-18T12:13:32.112Z,20.49
2023-05-18T12:14:31.882Z,20.39
2023-05-18T12:15:31.888Z,20.33
2023-05-18T12:16:31.696Z,20.30
2023-05-18T12:17:31.739Z,20.30
2023-05-18T12:18:31.591Z,20.27
2023-05-18T12:19:31.937Z,20.27
2023-05-18T12:20:31.702Z,20.40
2023-05-18T12:21:32.544Z,20.27
2023-05-18T12:22:31.424Z,20.29
2023-05-18T12:23:31.551Z,20.36
2023-05-18T12:24:32.289Z,20.42
2023-05-18T12:25:31.833Z,20.44
2023-05-18T12:26:31.266Z,20.55
2023-05-18T12:27:32.457Z,20.66
2023-05-18T12:28:31.188Z,20.75
2023-05-18T12:29:31.152Z,20.89
2023-05-18T12:30:31.201Z,21.00
2023-05-18T12:31:31.249Z,21.19
2023-05-18T12:32:31.268Z,21.40
2023-05-18T12:33:30.988Z,21.48
2023-05-18T12:34:31.215Z,21.50
2023-05-18T12:35:31.279Z,21.68
2023-05-18T12:36:31.020Z,21.80
2023-05-18T12:37:38.084Z,22.03
2023-05-18T12:38:30.785Z,22.22
2023-05-18T12:39:31.038Z,22.26
2023-05-18T12:40:30.856Z,22.51
2023-05-18T12:41:30.671Z,22.70
2023-05-18T12:42:30.862Z,22.65
2023-05-18T12:43:30.657Z,22.76
2023-05-18T12:44:30.672Z,22.63
2023-05-18T12:45:32.208Z,22.62
2023-05-18T12:46:30.746Z,22.52
2023-05-18T12:47:31.615Z,22.55
2023-05-18T12:48:30.397Z,22.46
2023-05-18T12:49:31.529Z,22.44
2023-05-18T12:50:30.423Z,22.41
2023-05-18T12:51:31.538Z,22.30
2023-05-18T12:52:30.257Z,22.22
2023-05-18T12:53:30.433Z,22.31
2023-05-18T12:54:30.252Z,22.28
2023-05-18T12:55:30.612Z,22.33
2023-05-18T12:56:30.083Z,22.41
2023-05-18T12:57:31.324Z,22.30
2023-05-18T12:58:30.027Z,22.23